Time;durP1;ratioP1;P1;durP2;ratioP2;P2;SDS_P1;SDS_P2;PMS_P1;PMS_P2;Temp;Humidity;BMP_temperature;BMP_pressure;BME280_temperature;BME280_humidity;BME280_pressure;Samples;Min_cycle;Max_cycle;Signal;HPM_P1;HPM_P2
2022/12/01 00:01:36;;;;;;;55.67;27.57;;;3.40;99.90;;;-141.84;77.30;18720.59;5010739;28;20223;-61
2022/12/01 00:04:04;;;;;;;52.87;26.00;;;3.40;99.90;;;-141.84;77.73;18726.69;5010636;28;20242;-61
2022/12/01 00:06:33;;;;;;;55.37;28.67;;;3.30;99.90;;;-141.84;77.32;18730.75;5011116;28;20210;-62
2022/12/01 00:11:48;;;;;;;56.83;27.37;;;3.30;99.90;;;-141.84;76.83;18724.66;5010258;28;20313;-61
2022/12/01 00:14:16;;;;;;;57.80;28.53;;;3.30;99.90;;;-141.84;77.11;18684.00;5010434;28;20228;-61
2022/12/01 00:16:46;;;;;;;60.63;28.03;;;3.20;99.90;;;-141.84;77.23;18728.72;5010331;28;20233;-61
2022/12/01 00:19:14;;;;;;;56.90;27.73;;;3.30;99.90;;;-141.84;77.00;18716.53;5010576;28;20231;-61
2022/12/01 00:21:42;;;;;;;57.90;27.43;;;3.30;99.90;;;-141.84;77.11;18718.56;5010856;28;20242;-62
2022/12/01 00:24:11;;;;;;;57.43;27.93;;;3.30;99.90;;;-141.84;77.46;18716.53;5010084;28;20602;-62
2022/12/01 00:26:40;;;;;;;60.30;27.97;;;3.20;99.90;;;-141.84;77.64;18747.00;4995938;28;20595;-61
2022/12/01 00:29:08;;;;;;;55.67;27.50;;;3.20;99.90;;;-141.84;76.97;18722.63;4990611;28;20231;-61
2022/12/01 00:31:37;;;;;;;56.73;27.20;;;3.30;99.90;;;-141.84;76.97;18704.31;4990734;28;20228;-62
2022/12/01 00:34:21;;;;;;;59.93;27.43;;;3.30;99.90;;;-141.84;77.30;18726.69;4990429;28;20218;-61
2022/12/01 00:36:49;;;;;;;60.93;29.07;;;3.30;99.90;;;-141.84;77.21;18718.56;4990235;28;20622;-61
2022/12/01 00:39:17;;;;;;;65.63;30.30;;;3.20;99.90;;;-141.84;77.88;18700.25;4990208;28;20222;-61
2022/12/01 00:41:45;;;;;;;83.57;32.10;;;3.20;99.90;;;-141.84;78.04;18692.13;5005771;28;20539;-61
2022/12/01 00:44:13;;;;;;;75.50;31.97;;;3.20;99.90;;;-141.84;78.30;18667.75;5005414;28;20232;-61
2022/12/01 00:46:42;;;;;;;80.17;33.57;;;3.10;99.90;;;-141.84;78.75;18692.13;5009998;28;20232;-61
2022/12/01 00:49:14;;;;;;;84.50;35.40;;;3.10;99.90;;;-141.84;79.18;18688.06;4973318;28;1083155;-61
2022/12/01 00:51:42;;;;;;;78.10;33.67;;;3.10;99.90;;;-141.84;78.58;18700.25;5011542;28;20487;-61
2022/12/01 00:54:10;;;;;;;82.07;34.57;;;3.10;99.90;;;-141.84;78.87;18704.31;5005455;28;20223;-62
2022/12/01 00:56:38;;;;;;;88.13;35.20;;;3.10;99.90;;;-141.84;79.19;18667.75;5005902;28;20243;-60
2022/12/01 00:59:06;;;;;;;89.07;36.40;;;3.00;99.90;;;-141.84;78.71;18718.56;5010882;28;20225;-62
2022/12/01 01:01:35;;;;;;;89.17;36.10;;;3.00;99.90;;;-141.84;78.06;18712.47;5010906;28;20358;-62
2022/12/01 01:04:03;;;;;;;84.30;34.93;;;3.00;99.90;;;-141.84;79.03;18716.53;5011173;28;20246;-62
2022/12/01 01:06:32;;;;;;;84.73;34.60;;;3.00;99.90;;;-141.84;79.00;18716.53;5011043;28;20552;-62
2022/12/01 01:09:01;;;;;;;86.53;34.83;;;3.00;99.90;;;-141.84;79.22;18686.03;5010608;28;20231;-61
2022/12/01 01:11:29;;;;;;;94.43;37.77;;;3.00;99.90;;;-141.84;79.77;18692.13;5010627;28;20226;-60
2022/12/01 01:13:59;;;;;;;97.27;36.93;;;3.00;99.90;;;-141.84;79.70;18688.06;5010719;28;20289;-62
2022/12/01 01:16:28;;;;;;;85.40;36.03;;;2.90;99.90;;;-141.84;79.35;18698.22;5010744;28;20245;-61
2022/12/01 01:18:57;;;;;;;85.83;34.53;;;3.00;99.90;;;-141.84;79.19;18675.88;5010717;28;20200;-61
2022/12/01 01:21:26;;;;;;;96.47;36.77;;;3.00;99.90;;;-141.84;79.44;18663.69;5011157;28;20208;-61
2022/12/01 01:23:56;;;;;;;96.30;35.80;;;3.00;99.90;;;-141.84;79.51;18690.09;5010426;28;20231;-62
2022/12/01 01:26:28;;;;;;;90.73;35.43;;;2.90;99.90;;;-141.84;79.61;18663.69;4998326;28;20325;-61
2022/12/01 01:28:59;;;;;;;84.87;33.80;;;2.90;99.90;;;-141.84;80.05;18655.56;4990820;28;20715;-62
2022/12/01 01:31:30;;;;;;;87.93;34.37;;;2.90;99.90;;;-141.84;80.16;18706.38;4991074;28;20228;-62
2022/12/01 01:33:58;;;;;;;76.87;31.43;;;3.00;99.90;;;-141.84;79.21;18708.41;4991141;28;20192;-62
2022/12/01 01:36:27;;;;;;;66.40;29.30;;;3.00;99.90;;;-141.84;78.75;18675.88;4991368;28;20201;-62
2022/12/01 01:38:57;;;;;;;67.50;29.73;;;3.00;99.90;;;-141.84;79.10;18667.75;5007181;28;20631;-61
2022/12/01 01:41:25;;;;;;;67.97;29.17;;;3.00;99.90;;;-141.84;78.73;18724.66;5010381;28;20638;-62
2022/12/01 01:43:56;;;;;;;63.17;29.17;;;2.90;99.90;;;-141.84;78.15;18677.91;5005811;28;20233;-62
2022/12/01 01:46:27;;;;;;;61.73;28.57;;;2.90;99.90;;;-141.84;77.78;18710.44;5011417;28;20227;-61
2022/12/01 01:49:00;;;;;;;68.57;28.93;;;2.90;99.90;;;-141.84;77.74;18684.00;5013535;28;20242;-61
2022/12/01 01:51:34;;;;;;;63.07;28.73;;;3.00;99.90;;;-141.84;77.26;18677.91;5014343;28;20188;-61
2022/12/01 01:54:14;;;;;;;62.97;29.20;;;3.00;99.90;;;-141.84;77.94;18688.06;5009111;28;20231;-61
2022/12/01 01:56:44;;;;;;;58.97;27.47;;;2.90;99.90;;;-141.84;77.97;18700.25;5008869;28;20238;-61
2022/12/01 01:59:19;;;;;;;59.03;27.27;;;2.90;99.90;;;-141.84;77.94;18686.03;5013608;28;20715;-61
2022/12/01 02:01:56;;;;;;;58.47;26.40;;;2.90;99.90;;;-141.84;78.10;18698.22;5013745;28;20229;-61
2022/12/01 02:04:26;;;;;;;53.57;25.67;;;3.00;99.90;;;-141.84;78.46;18690.09;5013644;28;20723;-61
2022/12/01 02:06:55;;;;;;;55.50;25.23;;;2.90;99.90;;;-141.84;77.89;18688.06;5014036;28;20651;-63
2022/12/01 02:09:24;;;;;;;56.80;25.40;;;2.90;99.90;;;-141.84;77.74;18671.81;5013635;28;20233;-62
2022/12/01 02:12:16;;;;;;;53.43;25.47;;;2.90;99.90;;;-141.84;78.01;18696.19;5013204;28;20229;-61
2022/12/01 02:15:13;;;;;;;64.80;28.90;;;2.90;99.90;;;-141.84;77.74;18671.81;5013104;28;20238;-62
2022/12/01 02:17:52;;;;;;;68.43;29.10;;;2.90;99.90;;;-141.84;77.44;18702.28;5013303;28;20229;-62
2022/12/01 02:21:05;;;;;;;66.13;29.83;;;2.80;99.90;;;-141.84;77.70;18671.81;5013349;28;20237;-61
2022/12/01 02:24:43;;;;;;;68.83;29.63;;;2.90;99.90;;;-141.84;77.95;18659.63;5013046;28;20246;-61
2022/12/01 02:27:32;;;;;;;58.53;27.47;;;2.80;99.90;;;-141.84;77.67;18675.88;4994485;28;20294;-60
2022/12/01 02:30:13;;;;;;;64.20;28.63;;;2.70;99.90;;;-141.84;78.50;18708.41;4993479;28;20227;-60
2022/12/01 02:33:05;;;;;;;73.60;29.43;;;2.60;99.90;;;-141.84;78.13;18684.00;4993355;28;20251;-61
2022/12/01 02:35:44;;;;;;;60.83;28.00;;;2.60;99.90;;;-141.84;78.06;18704.31;5007258;28;20269;-61
2022/12/01 02:38:25;;;;;;;70.33;28.27;;;2.60;99.90;;;-141.84;78.43;18684.00;5012883;28;20230;-61
2022/12/01 02:41:06;;;;;;;66.80;28.37;;;2.70;99.90;;;-141.84;78.29;18692.13;5013011;28;20227;-61
2022/12/01 02:43:44;;;;;;;65.40;26.77;;;2.70;99.90;;;-141.84;78.41;18700.25;5008257;28;20226;-61
2022/12/01 02:46:20;;;;;;;65.50;28.10;;;2.70;99.90;;;-141.84;78.47;18677.91;5013180;28;20191;-61
2022/12/01 02:48:55;;;;;;;67.57;28.33;;;2.70;99.90;;;-141.84;77.92;18692.13;5013007;28;20235;-61
2022/12/01 02:51:29;;;;;;;70.03;29.13;;;2.70;99.90;;;-141.84;78.27;18657.59;5013023;28;20211;-61
2022/12/01 02:53:59;;;;;;;61.47;27.37;;;2.60;99.90;;;-141.84;78.35;18694.16;5008871;28;20220;-61
2022/12/01 02:56:28;;;;;;;69.93;27.97;;;2.60;99.90;;;-141.84;78.42;18655.56;5005745;28;20230;-62
2022/12/01 02:58:56;;;;;;;64.33;28.60;;;2.50;99.90;;;-141.84;78.98;18643.38;5011707;28;20226;-61
2022/12/01 03:01:49;;;;;;;67.53;28.20;;;2.50;99.90;;;-141.84;79.10;18679.94;5013030;28;20593;-61
2022/12/01 03:04:56;;;;;;;56.63;26.60;;;2.50;99.90;;;-141.84;78.96;18665.72;5012696;28;20634;-61
2022/12/01 03:07:49;;;;;;;65.37;27.83;;;2.50;99.90;;;-141.84;79.29;18635.25;5007899;28;20280;-60
2022/12/01 03:10:25;;;;;;;70.67;27.83;;;2.40;99.90;;;-141.84;79.30;18667.75;5012540;28;20589;-61
2022/12/01 03:13:09;;;;;;;63.30;27.67;;;2.40;99.90;;;-141.84;79.29;18635.25;5012745;28;20627;-61
2022/12/01 03:15:52;;;;;;;58.47;25.93;;;2.70;99.90;;;-141.84;79.08;18651.50;5012532;28;20212;-61
2022/12/01 03:18:35;;;;;;;66.63;27.90;;;2.50;99.90;;;-141.84;78.38;18681.97;5012603;28;20381;-62
2022/12/01 03:21:14;;;;;;;71.70;29.40;;;2.60;99.90;;;-141.84;78.06;18675.88;5012031;28;20227;-62
2022/12/01 03:23:50;;;;;;;67.07;27.13;;;2.50;99.90;;;-141.84;78.92;18649.47;5011946;28;20241;-61
2022/12/01 03:26:23;;;;;;;60.23;26.87;;;2.50;99.90;;;-141.84;78.06;18688.06;5012288;28;20257;-62
2022/12/01 03:28:56;;;;;;;59.20;26.13;;;2.60;99.90;;;-141.84;77.63;18675.88;5012147;28;20216;-61
2022/12/01 03:31:32;;;;;;;52.80;23.13;;;2.60;99.90;;;-141.84;77.06;18718.56;5012334;28;20237;-61
2022/12/01 03:34:09;;;;;;;43.67;22.60;;;2.60;99.90;;;-141.84;76.83;18708.41;5012009;28;20190;-61
2022/12/01 03:36:43;;;;;;;46.17;21.70;;;2.60;99.90;;;-141.84;76.84;18702.28;5012668;28;20237;-61
2022/12/01 03:39:19;;;;;;;48.53;21.87;;;2.50;99.90;;;-141.84;76.34;18696.19;5011825;28;20231;-60
2022/12/01 03:41:54;;;;;;;48.43;21.03;;;2.50;99.90;;;-141.84;76.23;18706.38;5011794;28;20230;-61
2022/12/01 03:44:31;;;;;;;44.40;22.03;;;2.50;99.90;;;-141.84;77.60;18690.09;5011582;28;20631;-62
2022/12/01 03:47:05;;;;;;;47.17;21.27;;;2.50;99.90;;;-141.84;77.48;18675.88;5012158;28;20283;-62
2022/12/01 03:49:35;;;;;;;45.17;20.93;;;2.50;99.90;;;-141.84;77.58;18675.88;5011480;28;20238;-61
2022/12/01 03:52:18;;;;;;;49.00;22.57;;;2.50;99.90;;;-141.84;76.91;18688.06;5011933;28;20183;-61
2022/12/01 03:55:01;;;;;;;45.60;22.20;;;2.50;99.90;;;-141.84;76.86;18679.94;5012244;28;20206;-61
2022/12/01 03:57:36;;;;;;;45.93;22.00;;;2.40;99.90;;;-141.84;77.39;18696.19;5011884;28;20228;-61
2022/12/01 04:00:07;;;;;;;49.17;22.77;;;2.40;99.90;;;-141.84;77.83;18686.03;5011641;28;20227;-61
2022/12/01 04:02:36;;;;;;;52.53;22.50;;;2.30;99.90;;;-141.84;78.13;18673.84;5011730;28;20716;-61
2022/12/01 04:05:08;;;;;;;45.27;21.17;;;2.40;99.90;;;-141.84;77.21;18671.81;5011487;28;20309;-61
2022/12/01 04:07:38;;;;;;;42.00;21.40;;;2.40;99.90;;;-141.84;77.07;18686.03;5011431;28;20625;-62
2022/12/01 04:10:08;;;;;;;46.27;21.77;;;2.40;99.90;;;-141.84;76.36;18690.09;5011257;28;20306;-61
2022/12/01 04:12:35;;;;;;;45.67;21.03;;;2.40;99.90;;;-141.84;76.98;18667.75;5012292;28;20194;-62
2022/12/01 04:15:09;;;;;;;52.30;22.43;;;2.40;99.90;;;-141.84;77.25;18700.25;5011563;28;20718;-61
2022/12/01 04:17:37;;;;;;;51.90;23.67;;;2.30;99.90;;;-141.84;77.04;18671.81;5011728;28;20230;-63
2022/12/01 04:20:08;;;;;;;50.83;23.00;;;2.30;99.90;;;-141.84;77.21;18679.94;5010808;28;20733;-63
2022/12/01 04:22:37;;;;;;;53.03;23.07;;;2.20;99.90;;;-141.84;77.66;18679.94;5011239;28;20222;-61
2022/12/01 04:25:07;;;;;;;49.17;22.83;;;2.10;99.90;;;-141.84;77.95;18694.16;5011160;28;20202;-61
2022/12/01 04:27:36;;;;;;;53.87;23.33;;;2.10;99.90;;;-141.84;78.27;18675.88;5011604;28;20561;-62
2022/12/01 04:30:07;;;;;;;50.60;22.97;;;2.10;99.90;;;-141.84;78.82;18647.44;5010962;28;20238;-61
2022/12/01 04:32:39;;;;;;;53.07;23.23;;;2.00;99.90;;;-141.84;79.07;18657.59;5011346;28;20233;-61
2022/12/01 04:35:10;;;;;;;47.77;22.17;;;2.00;99.90;;;-141.84;78.69;18649.47;5011222;28;20230;-61
2022/12/01 04:37:40;;;;;;;54.60;23.83;;;2.00;99.90;;;-141.84;79.33;18623.06;5011117;28;20713;-63
2022/12/01 04:40:10;;;;;;;49.17;21.77;;;2.10;99.90;;;-141.84;79.72;18669.78;5010838;28;20670;-62
2022/12/01 04:42:38;;;;;;;52.23;22.23;;;2.00;99.90;;;-141.84;79.53;18647.44;5011378;28;20685;-62
2022/12/01 04:45:07;;;;;;;54.40;24.47;;;2.00;99.90;;;-141.84;79.21;18655.56;5011236;28;20300;-61
2022/12/01 04:47:35;;;;;;;53.90;23.67;;;2.00;99.90;;;-141.84;79.63;18631.19;5010841;28;20234;-63
2022/12/01 04:50:05;;;;;;;53.43;22.27;;;2.00;99.90;;;-141.84;78.67;18679.94;5011101;28;20292;-60
2022/12/01 04:52:37;;;;;;;47.70;20.60;;;2.00;99.90;;;-141.84;79.35;18651.50;5011021;28;20230;-61
2022/12/01 04:55:08;;;;;;;47.70;22.27;;;2.00;99.90;;;-141.84;78.85;18645.41;5009235;28;20210;-61
2022/12/01 04:57:38;;;;;;;52.67;21.63;;;2.10;99.90;;;-141.84;78.75;18655.56;4992057;28;20192;-62
2022/12/01 05:00:12;;;;;;;51.80;22.13;;;2.10;99.90;;;-141.84;78.75;18665.72;4991287;28;20231;-62
2022/12/01 05:02:42;;;;;;;51.33;21.97;;;2.00;99.90;;;-141.84;79.22;18667.75;4991308;28;20235;-61
2022/12/01 05:05:12;;;;;;;47.53;20.07;;;2.00;99.90;;;-141.84;78.59;18610.88;4991445;28;20609;-62
2022/12/01 05:07:41;;;;;;;48.87;19.27;;;2.00;99.90;;;-141.84;78.15;18649.47;4991200;28;20223;-61
2022/12/01 05:10:13;;;;;;;44.47;19.57;;;2.00;99.90;;;-141.84;78.13;18663.69;4991366;28;20621;-62
2022/12/01 05:12:41;;;;;;;44.27;19.47;;;2.00;99.90;;;-141.84;78.13;18675.88;4991788;28;20218;-61
2022/12/01 05:15:10;;;;;;;50.43;19.90;;;2.00;99.90;;;-141.84;78.64;18637.28;4991380;28;20719;-61
2022/12/01 05:17:38;;;;;;;51.17;20.97;;;1.90;99.90;;;-141.84;78.85;18608.84;4990961;28;20227;-61
2022/12/01 05:22:58;;;;;;;46.53;20.47;;;1.70;99.90;;;-141.84;79.62;18625.09;5002544;28;20218;-61
2022/12/01 05:25:37;;;;;;;46.00;19.13;;;1.80;99.90;;;-141.84;79.09;18639.31;4997805;28;20229;-62
2022/12/01 05:28:05;;;;;;;45.23;19.87;;;1.80;99.90;;;-141.84;79.68;18594.63;4994814;28;20207;-61
2022/12/01 05:30:34;;;;;;;44.43;18.67;;;1.70;99.90;;;-141.84;79.99;18627.13;4995397;28;20203;-62
2022/12/01 05:33:02;;;;;;;44.50;19.93;;;1.70;99.90;;;-141.84;80.00;18649.47;5011890;28;20228;-62
2022/12/01 05:35:30;;;;;;;50.20;19.10;;;1.70;99.90;;;-141.84;79.89;18663.69;5014038;28;20296;-61
2022/12/01 05:37:58;;;;;;;43.80;18.87;;;1.60;99.90;;;-141.84;79.87;18627.13;5014147;28;20223;-62
2022/12/01 05:40:34;;;;;;;38.93;18.50;;;1.70;99.90;;;-141.84;79.66;18659.63;5014220;28;20229;-62
2022/12/01 05:43:05;;;;;;;41.00;17.60;;;1.60;99.90;;;-141.84;80.20;18631.19;5012830;28;20202;-61
2022/12/01 05:45:34;;;;;;;50.57;19.30;;;1.70;99.90;;;-141.84;81.06;18639.31;4995134;28;20226;-61
2022/12/01 05:48:03;;;;;;;40.97;17.80;;;1.60;99.90;;;-141.84;80.88;18663.69;4994048;28;20250;-62
2022/12/01 05:50:31;;;;;;;49.33;19.83;;;1.60;99.90;;;-141.84;80.85;18614.94;4994321;28;20731;-61
2022/12/01 05:52:59;;;;;;;46.77;19.97;;;1.60;99.90;;;-141.84;81.00;18629.16;4994639;28;20219;-61
2022/12/01 05:55:27;;;;;;;49.30;19.23;;;1.60;99.90;;;-141.84;80.78;18619.00;4983323;28;20486;-62
2022/12/01 05:57:55;;;;;;;48.17;20.17;;;1.60;99.90;;;-141.84;80.89;18610.88;4994364;28;20214;-62
2022/12/01 06:00:25;;;;;;;44.70;19.50;;;1.60;99.90;;;-141.84;81.27;18600.72;4994916;28;20262;-61
2022/12/01 06:02:53;;;;;;;43.43;19.23;;;1.50;99.90;;;-141.84;81.22;18594.63;4994254;28;20587;-61
2022/12/01 06:05:21;;;;;;;44.27;18.33;;;1.60;99.90;;;-141.84;81.77;18606.81;4994049;28;20286;-62
2022/12/01 06:07:50;;;;;;;43.57;18.13;;;1.50;99.90;;;-141.84;82.10;18594.63;4993932;28;20831;-61
2022/12/01 06:10:18;;;;;;;51.20;20.07;;;1.50;99.90;;;-141.84;82.47;18590.56;4994344;28;20262;-61
2022/12/01 06:12:46;;;;;;;48.20;20.00;;;1.50;99.90;;;-141.84;82.42;18627.13;4997527;28;20222;-61
2022/12/01 06:15:14;;;;;;;43.57;19.20;;;1.40;99.90;;;-141.84;82.12;18608.84;5013564;28;20231;-61
2022/12/01 06:17:44;;;;;;;42.90;19.13;;;1.50;99.90;;;-141.84;82.19;18558.03;5013179;28;20851;-61
2022/12/01 06:20:13;;;;;;;43.67;17.93;;;1.50;99.90;;;-141.84;81.79;18584.47;5013174;28;20588;-61
2022/12/01 06:22:41;;;;;;;43.00;18.33;;;1.50;99.90;;;-141.84;81.58;18610.88;5013266;28;20226;-62
2022/12/01 06:25:10;;;;;;;45.07;19.07;;;1.60;99.90;;;-141.84;81.86;18631.19;5011282;28;20207;-61
2022/12/01 06:27:38;;;;;;;45.03;18.90;;;1.60;99.90;;;-141.84;81.54;18594.63;4994068;28;20202;-62
2022/12/01 06:30:09;;;;;;;44.33;18.80;;;1.60;99.90;;;-141.84;81.69;18616.97;4993727;28;20235;-61
2022/12/01 06:32:38;;;;;;;44.00;19.47;;;1.70;99.90;;;-141.84;81.24;18610.88;4993193;28;20596;-61
2022/12/01 06:35:09;;;;;;;43.00;19.03;;;1.70;99.90;;;-141.84;81.19;18606.81;4993482;28;20223;-61
2022/12/01 06:37:37;;;;;;;48.03;19.50;;;1.70;99.90;;;-141.84;81.80;18610.88;4993439;28;20234;-62
2022/12/01 06:40:07;;;;;;;41.53;17.53;;;1.70;99.90;;;-141.84;81.90;18596.66;4993363;28;20596;-61
2022/12/01 06:42:35;;;;;;;43.87;19.17;;;1.70;99.90;;;-141.84;81.52;18610.88;4993787;28;20186;-62
2022/12/01 06:45:04;;;;;;;44.23;19.93;;;1.80;99.90;;;-141.84;81.84;18631.19;5010714;28;20281;-63
2022/12/01 06:47:32;;;;;;;49.33;21.00;;;1.80;99.90;;;-141.84;81.73;18619.00;5012627;28;20237;-62
2022/12/01 06:50:01;;;;;;;46.80;20.33;;;1.80;99.90;;;-141.84;81.57;18629.16;5012815;28;20226;-62
2022/12/01 06:52:30;;;;;;;47.80;20.07;;;1.80;99.90;;;-141.84;81.37;18600.72;5012384;28;20233;-60
2022/12/01 06:54:59;;;;;;;49.80;19.63;;;1.80;99.90;;;-141.84;81.89;18625.09;5011676;28;20213;-62
2022/12/01 06:57:27;;;;;;;48.50;19.77;;;1.80;99.90;;;-141.84;81.54;18596.66;4993524;28;20200;-62
2022/12/01 06:59:55;;;;;;;42.00;18.60;;;1.80;99.90;;;-141.84;81.20;18627.13;4993183;28;20379;-61
2022/12/01 07:02:24;;;;;;;45.90;20.43;;;1.80;99.90;;;-141.84;81.15;18619.00;4992936;28;20766;-61
2022/12/01 07:04:52;;;;;;;49.17;19.60;;;1.80;99.90;;;-141.84;81.41;18616.97;4993064;28;20227;-62
2022/12/01 07:07:20;;;;;;;44.77;19.53;;;1.80;99.90;;;-141.84;81.48;18625.09;4992719;28;20579;-62
2022/12/01 07:09:50;;;;;;;46.37;20.33;;;1.80;99.90;;;-141.84;81.46;18621.03;4993274;28;20212;-62
2022/12/01 07:12:18;;;;;;;53.90;21.70;;;1.70;99.90;;;-141.84;81.38;18598.69;5012591;28;20702;-63
2022/12/01 07:14:47;;;;;;;48.27;20.10;;;1.70;99.90;;;-141.84;81.84;18631.19;4992811;28;20230;-62
2022/12/01 07:17:15;;;;;;;48.10;20.30;;;1.70;99.90;;;-141.84;82.33;18602.75;5000142;28;20223;-61
2022/12/01 07:19:43;;;;;;;56.60;20.60;;;1.60;99.90;;;-141.84;81.96;18608.84;5012296;28;20234;-62
2022/12/01 07:22:11;;;;;;;62.27;20.27;;;1.60;99.90;;;-141.84;81.50;18596.66;5012025;28;20667;-61
2022/12/01 07:24:39;;;;;;;57.73;21.57;;;1.50;99.90;;;-141.84;82.11;18586.50;5012848;28;20266;-62
2022/12/01 07:27:09;;;;;;;46.80;19.10;;;1.40;99.90;;;-141.84;82.20;18586.50;4993822;28;20282;-61
2022/12/01 07:29:37;;;;;;;60.73;20.80;;;1.50;99.90;;;-141.84;82.76;18598.69;4992594;28;20231;-62
2022/12/01 07:32:05;;;;;;;50.13;19.90;;;1.50;99.90;;;-141.84;82.86;18602.75;4992630;28;20248;-62
2022/12/01 07:34:34;;;;;;;46.80;20.30;;;1.40;99.90;;;-141.84;83.01;18592.59;4992082;28;20274;-62
2022/12/01 07:37:02;;;;;;;47.70;19.73;;;1.40;99.90;;;-141.84;82.51;18610.88;4992153;28;20196;-61
2022/12/01 07:39:30;;;;;;;62.23;20.90;;;1.50;99.90;;;-141.84;82.56;18619.00;4992745;28;20214;-61
2022/12/01 07:41:58;;;;;;;54.60;21.47;;;1.50;99.90;;;-141.84;83.30;18602.75;4992137;28;20892;-61
2022/12/01 07:44:27;;;;;;;68.43;21.77;;;1.40;99.90;;;-141.84;83.34;18604.78;5008555;28;20239;-61
2022/12/01 07:46:56;;;;;;;53.23;21.87;;;1.30;99.90;;;-141.84;83.61;18610.88;5011754;28;20720;-62
2022/12/01 07:49:24;;;;;;;77.20;21.33;;;1.40;99.90;;;-141.84;83.91;18602.75;5011335;28;20234;-61
2022/12/01 07:51:52;;;;;;;51.73;20.70;;;1.30;99.90;;;-141.84;83.80;18590.56;5012299;28;20222;-62
2022/12/01 07:54:20;;;;;;;68.40;22.23;;;1.30;99.90;;;-141.84;82.95;18590.56;5005023;28;20226;-61
2022/12/01 07:56:48;;;;;;;46.47;20.43;;;1.40;99.90;;;-141.84;82.75;18584.47;4991757;28;20249;-60
2022/12/01 07:59:17;;;;;;;46.90;19.47;;;1.40;99.90;;;-141.84;82.97;18598.69;4991675;28;20563;-61
2022/12/01 08:01:46;;;;;;;55.17;21.03;;;1.40;99.90;;;-141.84;83.52;18604.78;4992054;28;20234;-61
2022/12/01 08:04:14;;;;;;;51.03;20.47;;;1.40;99.90;;;-141.84;83.57;18580.41;4991571;28;20226;-62
2022/12/01 08:06:42;;;;;;;50.27;20.17;;;1.40;99.90;;;-141.84;83.11;18580.41;4992473;28;20214;-61
2022/12/01 08:09:11;;;;;;;56.07;22.47;;;1.50;99.90;;;-141.84;83.23;18566.16;4991174;28;20223;-62
2022/12/01 08:11:39;;;;;;;52.07;20.30;;;1.80;99.90;;;-141.84;83.27;18621.03;5005870;28;20222;-62
2022/12/01 08:14:07;;;;;;;41.03;19.70;;;1.50;99.90;;;-141.84;83.91;18570.22;5009919;28;20245;-62
2022/12/01 08:16:35;;;;;;;48.73;20.37;;;1.50;99.90;;;-141.84;84.09;18598.69;5010556;28;20621;-61
2022/12/01 08:19:05;;;;;;;47.63;21.73;;;1.50;99.90;;;-141.84;84.17;18580.41;5011724;28;20215;-61
2022/12/01 08:21:33;;;;;;;41.83;19.70;;;1.50;99.90;;;-141.84;83.68;18586.50;5011824;28;20206;-62
2022/12/01 08:24:01;;;;;;;61.57;20.03;;;1.50;99.90;;;-141.84;82.85;18586.50;5005750;28;20223;-61
2022/12/01 08:26:29;;;;;;;52.80;20.93;;;1.60;99.90;;;-141.84;82.54;18566.16;4993701;28;20227;-62
2022/12/01 08:28:57;;;;;;;64.30;21.23;;;1.60;99.90;;;-141.84;82.07;18592.59;5006441;28;20235;-62
2022/12/01 08:31:29;;;;;;;47.37;20.80;;;1.60;99.90;;;-141.84;82.34;18608.84;4995766;28;20241;-62
2022/12/01 08:33:57;;;;;;;51.83;20.67;;;1.60;99.90;;;-141.84;82.00;18602.75;5011213;28;20717;-61
2022/12/01 08:36:27;;;;;;;56.10;20.67;;;1.60;99.90;;;-141.84;81.54;18600.72;5011894;28;20622;-61
2022/12/01 08:38:56;;;;;;;49.40;20.93;;;1.50;99.90;;;-141.84;81.62;18619.00;5011023;28;20243;-62
2022/12/01 08:41:25;;;;;;;45.00;20.13;;;1.60;99.90;;;-141.84;82.02;18592.59;5011067;28;20229;-63
2022/12/01 08:43:53;;;;;;;56.33;20.60;;;1.50;99.90;;;-141.84;82.46;18590.56;5011245;28;20230;-62
2022/12/01 08:46:36;;;;;;;47.43;20.60;;;1.50;99.90;;;-141.84;82.01;18612.91;5011255;28;20234;-62
2022/12/01 08:49:06;;;;;;;52.90;21.77;;;1.60;99.90;;;-141.84;81.63;18602.75;5010747;28;20239;-62
2022/12/01 08:51:36;;;;;;;49.37;20.37;;;1.60;99.90;;;-141.84;81.99;18602.75;5011435;28;20257;-62
2022/12/01 08:54:05;;;;;;;50.10;20.27;;;1.70;99.90;;;-141.84;80.85;18606.81;5010409;28;20222;-62
2022/12/01 08:56:36;;;;;;;52.27;19.80;;;1.80;99.90;;;-141.84;80.30;18625.09;4998510;28;20233;-61
2022/12/01 08:59:05;;;;;;;45.67;19.23;;;1.60;99.90;;;-141.84;80.39;18619.00;4995260;28;20593;-62
2022/12/01 09:01:34;;;;;;;45.83;19.87;;;1.70;99.90;;;-141.84;79.89;18629.16;4994914;28;20862;-62
2022/12/01 09:04:07;;;;;;;52.03;20.77;;;1.60;99.90;;;-141.84;80.25;18576.31;4995529;28;20202;-62
2022/12/01 09:06:41;;;;;;;47.00;20.10;;;1.50;99.90;;;-141.84;80.32;18594.63;4995698;28;20196;-62
2022/12/01 09:09:11;;;;;;;48.40;20.47;;;1.60;99.90;;;-141.84;80.66;18623.06;5013252;28;20233;-62
2022/12/01 09:11:42;;;;;;;45.50;19.77;;;1.60;99.90;;;-141.84;81.08;18610.88;5014642;28;20718;-62
2022/12/01 09:14:11;;;;;;;44.67;19.57;;;1.50;99.90;;;-141.84;80.27;18600.72;5014734;28;20237;-61
2022/12/01 09:16:39;;;;;;;45.83;19.77;;;1.60;99.90;;;-141.84;80.78;18590.56;5014512;28;20402;-61
2022/12/01 09:19:07;;;;;;;41.57;19.80;;;1.60;99.90;;;-141.84;80.94;18612.91;5014712;28;20209;-61
2022/12/01 09:21:37;;;;;;;47.63;19.83;;;1.70;99.90;;;-141.84;80.60;18604.78;5015014;28;20253;-61
2022/12/01 09:24:08;;;;;;;46.90;19.97;;;1.70;99.90;;;-141.84;80.85;18588.53;5010154;28;20223;-62
2022/12/01 09:26:36;;;;;;;48.37;19.57;;;1.60;99.90;;;-141.84;80.57;18619.00;5008781;28;20649;-62
2022/12/01 09:29:07;;;;;;;53.83;20.20;;;1.60;99.90;;;-141.84;79.58;18637.28;5014185;28;20714;-62
2022/12/01 09:31:37;;;;;;;49.60;20.90;;;1.70;99.90;;;-141.84;79.56;18627.13;5014320;28;20238;-61
2022/12/01 09:34:08;;;;;;;46.97;20.83;;;1.70;99.90;;;-141.84;78.82;18643.38;5014173;28;20225;-61
2022/12/01 09:36:38;;;;;;;42.13;20.37;;;1.90;99.90;;;-141.84;79.15;18635.25;5014417;28;20191;-61
2022/12/01 09:39:11;;;;;;;46.97;20.60;;;1.80;99.90;;;-141.84;78.64;18643.38;5013750;28;20233;-62
2022/12/01 09:41:45;;;;;;;45.90;19.33;;;1.90;99.90;;;-141.84;78.29;18643.38;5013838;28;20231;-61
2022/12/01 09:44:30;;;;;;;43.70;20.20;;;1.90;99.90;;;-141.84;78.02;18655.56;5002967;28;20287;-61
2022/12/01 09:47:10;;;;;;;47.17;21.07;;;1.90;99.90;;;-141.84;78.50;18641.34;4994460;28;20230;-60
2022/12/01 09:49:55;;;;;;;48.90;20.57;;;1.80;99.90;;;-141.84;78.67;18647.44;4994037;28;20310;-60
2022/12/01 09:52:29;;;;;;;49.87;22.43;;;1.70;99.90;;;-141.84;78.82;18629.16;4994245;28;20238;-62
2022/12/01 09:55:01;;;;;;;46.93;21.40;;;1.70;99.90;;;-141.84;78.66;18614.94;4994735;28;20199;-62
2022/12/01 09:57:34;;;;;;;44.70;20.50;;;1.70;99.90;;;-141.84;78.27;18633.22;5014060;28;20187;-63
2022/12/01 10:00:12;;;;;;;45.60;19.43;;;1.70;99.90;;;-141.84;77.62;18633.22;5013587;28;20314;-62
2022/12/01 10:02:47;;;;;;;49.33;20.70;;;1.80;99.90;;;-141.84;77.50;18637.28;5013304;28;20222;-62
2022/12/01 10:05:21;;;;;;;43.23;20.13;;;1.80;99.90;;;-141.84;77.42;18625.09;5013621;28;20229;-61
2022/12/01 10:07:58;;;;;;;51.53;20.00;;;1.80;99.90;;;-141.84;77.62;18649.47;5013039;28;20253;-62
2022/12/01 10:10:33;;;;;;;44.50;21.93;;;1.80;99.90;;;-141.84;77.45;18635.25;5013528;28;20241;-61
2022/12/01 10:13:01;;;;;;;44.80;20.47;;;1.80;99.90;;;-141.84;77.74;18657.59;5013688;28;20213;-61
2022/12/01 10:15:43;;;;;;;39.90;18.93;;;1.70;99.90;;;-141.84;77.55;18651.50;5013751;28;20264;-62
2022/12/01 10:18:31;;;;;;;38.07;19.00;;;1.80;99.90;;;-141.84;77.01;18657.59;5013341;28;20745;-61
2022/12/01 10:21:14;;;;;;;44.63;19.40;;;1.90;99.90;;;-141.84;76.75;18625.09;5013271;28;20231;-62
2022/12/01 10:24:16;;;;;;;41.60;19.87;;;1.90;99.90;;;-141.84;76.69;18641.34;5013281;28;20219;-62
2022/12/01 10:26:55;;;;;;;42.37;18.50;;;2.10;99.90;;;-141.84;77.28;18681.97;4998249;28;20231;-62